sensor_id;sensor_type;location;lat;lon;timestamp;temperature;humidity
17385;DHT22;8810;48.680;8.894;2023-02-04T00:01:46;6.50;99.90
17385;DHT22;8810;48.680;8.894;2023-02-04T00:04:12;6.50;99.90
17385;DHT22;8810;48.680;8.894;2023-02-04T00:06:39;6.50;99.90
17385;DHT22;8810;48.680;8.894;2023-02-04T00:09:06;6.40;99.90
17385;DHT22;8810;48.680;8.894;2023-02-04T00:11:35;6.50;99.90
17385;DHT22;8810;48.680;8.894;2023-02-04T00:14:01;6.40;99.90
17385;DHT22;8810;48.680;8.894;2023-02-04T00:16:28;6.50;99.90
17385;DHT22;8810;48.680;8.894;2023-02-04T00:18:55;6.50;99.90
17385;DHT22;8810;48.680;8.894;2023-02-04T00:21:22;6.40;99.90
17385;DHT22;8810;48.680;8.894;2023-02-04T00:23:49;6.40;99.90
17385;DHT22;8810;48.680;8.894;2023-02-04T00:26:16;6.40;99.90
17385;DHT22;8810;48.680;8.894;2023-02-04T00:28:44;6.40;99.90
17385;DHT22;8810;48.680;8.894;2023-02-04T00:31:11;6.40;99.90
17385;DHT22;8810;48.680;8.894;2023-02-04T00:33:38;6.40;99.90
17385;DHT22;8810;48.680;8.894;2023-02-04T00:36:07;6.40;99.90
17385;DHT22;8810;48.680;8.894;2023-02-04T00:38:34;6.40;99.90
17385;DHT22;8810;48.680;8.894;2023-02-04T00:41:01;6.40;99.90
17385;DHT22;8810;48.680;8.894;2023-02-04T00:43:28;6.40;99.90
17385;DHT22;8810;48.680;8.894;2023-02-04T00:45:56;6.40;99.90
17385;DHT22;8810;48.680;8.894;2023-02-04T00:48:23;6.40;99.90
17385;DHT22;8810;48.680;8.894;2023-02-04T00:50:50;6.40;99.90
17385;DHT22;8810;48.680;8.894;2023-02-04T00:53:18;6.40;99.90
17385;DHT22;8810;48.680;8.894;2023-02-04T00:55:45;6.40;99.90
17385;DHT22;8810;48.680;8.894;2023-02-04T00:58:12;6.40;99.90
17385;DHT22;8810;48.680;8.894;2023-02-04T01:00:39;6.40;99.90
17385;DHT22;8810;48.680;8.894;2023-02-04T01:03:07;6.40;99.90
17385;DHT22;8810;48.680;8.894;2023-02-04T01:05:34;6.40;99.90
17385;DHT22;8810;48.680;8.894;2023-02-04T01:08:00;6.40;99.90
17385;DHT22;8810;48.680;8.894;2023-02-04T01:10:27;6.40;99.90
17385;DHT22;8810;48.680;8.894;2023-02-04T01:12:54;6.40;99.90
17385;DHT22;8810;48.680;8.894;2023-02-04T01:15:21;6.40;99.90
17385;DHT22;8810;48.680;8.894;2023-02-04T01:17:48;6.40;99.90
17385;DHT22;8810;48.680;8.894;2023-02-04T01:20:16;6.40;99.90
17385;DHT22;8810;48.680;8.894;2023-02-04T01:22:43;6.40;99.90
17385;DHT22;8810;48.680;8.894;2023-02-04T01:25:10;6.30;99.90
17385;DHT22;8810;48.680;8.894;2023-02-04T01:27:37;6.40;99.90
17385;DHT22;8810;48.680;8.894;2023-02-04T01:30:04;6.40;99.90
17385;DHT22;8810;48.680;8.894;2023-02-04T01:32:31;6.40;99.90
17385;DHT22;8810;48.680;8.894;2023-02-04T01:34:58;6.30;99.90
17385;DHT22;8810;48.680;8.894;2023-02-04T01:37:26;6.30;99.90
17385;DHT22;8810;48.680;8.894;2023-02-04T01:39:53;6.30;99.90
17385;DHT22;8810;48.680;8.894;2023-02-04T01:42:20;6.30;99.90
17385;DHT22;8810;48.680;8.894;2023-02-04T01:44:47;6.30;99.90
17385;DHT22;8810;48.680;8.894;2023-02-04T01:47:14;6.30;99.90
17385;DHT22;8810;48.680;8.894;2023-02-04T01:49:41;6.30;99.90
17385;DHT22;8810;48.680;8.894;2023-02-04T01:52:09;6.30;99.90
17385;DHT22;8810;48.680;8.894;2023-02-04T01:54:38;6.30;99.90
17385;DHT22;8810;48.680;8.894;2023-02-04T01:57:05;6.30;99.90
17385;DHT22;8810;48.680;8.894;2023-02-04T01:59:35;6.20;99.90
17385;DHT22;8810;48.680;8.894;2023-02-04T02:02:37;6.20;99.90
17385;DHT22;8810;48.680;8.894;2023-02-04T02:05:04;6.20;99.90
17385;DHT22;8810;48.680;8.894;2023-02-04T02:07:31;6.20;99.90
17385;DHT22;8810;48.680;8.894;2023-02-04T02:10:00;6.20;99.90
17385;DHT22;8810;48.680;8.894;2023-02-04T02:12:27;6.20;99.90
17385;DHT22;8810;48.680;8.894;2023-02-04T02:14:54;6.20;99.90
17385;DHT22;8810;48.680;8.894;2023-02-04T02:17:21;6.20;99.90
17385;DHT22;8810;48.680;8.894;2023-02-04T02:19:47;6.20;99.90
17385;DHT22;8810;48.680;8.894;2023-02-04T02:22:19;6.20;99.90
17385;DHT22;8810;48.680;8.894;2023-02-04T02:24:49;6.20;99.90
17385;DHT22;8810;48.680;8.894;2023-02-04T02:27:16;6.20;99.90
17385;DHT22;8810;48.680;8.894;2023-02-04T02:29:43;6.20;99.90
17385;DHT22;8810;48.680;8.894;2023-02-04T02:32:11;6.20;99.90
17385;DHT22;8810;48.680;8.894;2023-02-04T02:34:39;6.20;99.90
17385;DHT22;8810;48.680;8.894;2023-02-04T02:37:07;6.20;99.90
17385;DHT22;8810;48.680;8.894;2023-02-04T02:39:35;6.10;99.90
17385;DHT22;8810;48.680;8.894;2023-02-04T02:42:03;6.20;99.90
17385;DHT22;8810;48.680;8.894;2023-02-04T02:44:31;6.10;99.90
17385;DHT22;8810;48.680;8.894;2023-02-04T02:46:59;6.20;99.90
17385;DHT22;8810;48.680;8.894;2023-02-04T02:49:26;6.10;99.90
17385;DHT22;8810;48.680;8.894;2023-02-04T02:51:54;6.10;99.90
17385;DHT22;8810;48.680;8.894;2023-02-04T02:54:23;6.10;99.90
17385;DHT22;8810;48.680;8.894;2023-02-04T02:56:50;6.00;99.90
17385;DHT22;8810;48.680;8.894;2023-02-04T02:59:19;6.00;99.90
17385;DHT22;8810;48.680;8.894;2023-02-04T03:01:49;6.00;99.90
17385;DHT22;8810;48.680;8.894;2023-02-04T03:04:17;6.00;99.90
17385;DHT22;8810;48.680;8.894;2023-02-04T03:06:45;6.00;99.90
17385;DHT22;8810;48.680;8.894;2023-02-04T03:09:12;5.90;99.90
17385;DHT22;8810;48.680;8.894;2023-02-04T03:11:39;5.90;99.90
17385;DHT22;8810;48.680;8.894;2023-02-04T03:14:06;5.90;99.90
17385;DHT22;8810;48.680;8.894;2023-02-04T03:16:35;5.90;99.90
17385;DHT22;8810;48.680;8.894;2023-02-04T03:19:04;5.80;99.90
17385;DHT22;8810;48.680;8.894;2023-02-04T03:21:32;5.80;99.90
17385;DHT22;8810;48.680;8.894;2023-02-04T03:23:59;5.80;99.90
17385;DHT22;8810;48.680;8.894;2023-02-04T03:26:26;5.80;99.90
17385;DHT22;8810;48.680;8.894;2023-02-04T03:28:53;5.80;99.90
17385;DHT22;8810;48.680;8.894;2023-02-04T03:31:20;5.80;99.90
17385;DHT22;8810;48.680;8.894;2023-02-04T03:33:48;5.80;99.90
17385;DHT22;8810;48.680;8.894;2023-02-04T03:36:15;5.80;99.90
17385;DHT22;8810;48.680;8.894;2023-02-04T03:38:42;5.80;99.90
17385;DHT22;8810;48.680;8.894;2023-02-04T03:41:09;5.80;99.90
17385;DHT22;8810;48.680;8.894;2023-02-04T03:43:36;5.80;99.90
17385;DHT22;8810;48.680;8.894;2023-02-04T03:46:03;5.80;99.90
17385;DHT22;8810;48.680;8.894;2023-02-04T03:48:30;5.80;99.90
17385;DHT22;8810;48.680;8.894;2023-02-04T03:50:58;5.80;99.90
17385;DHT22;8810;48.680;8.894;2023-02-04T03:53:25;5.80;99.90
17385;DHT22;8810;48.680;8.894;2023-02-04T03:55:52;5.80;99.90
17385;DHT22;8810;48.680;8.894;2023-02-04T03:58:18;5.80;99.90
17385;DHT22;8810;48.680;8.894;2023-02-04T04:00:45;5.80;99.90
17385;DHT22;8810;48.680;8.894;2023-02-04T04:03:12;5.80;99.90
17385;DHT22;8810;48.680;8.894;2023-02-04T04:05:39;5.80;99.90
17385;DHT22;8810;48.680;8.894;2023-02-04T04:08:07;5.80;99.90
17385;DHT22;8810;48.680;8.894;2023-02-04T04:10:34;5.80;99.90
17385;DHT22;8810;48.680;8.894;2023-02-04T04:13:01;5.80;99.90
17385;DHT22;8810;48.680;8.894;2023-02-04T04:15:27;5.80;99.90
17385;DHT22;8810;48.680;8.894;2023-02-04T04:17:55;5.80;99.90
17385;DHT22;8810;48.680;8.894;2023-02-04T04:20:22;5.80;99.90
17385;DHT22;8810;48.680;8.894;2023-02-04T04:22:50;5.70;99.90
17385;DHT22;8810;48.680;8.894;2023-02-04T04:25:18;5.70;99.90
17385;DHT22;8810;48.680;8.894;2023-02-04T04:27:45;5.60;99.90
17385;DHT22;8810;48.680;8.894;2023-02-04T04:30:12;5.60;99.90
17385;DHT22;8810;48.680;8.894;2023-02-04T04:32:39;5.60;99.90
17385;DHT22;8810;48.680;8.894;2023-02-04T04:35:06;5.50;99.90
17385;DHT22;8810;48.680;8.894;2023-02-04T04:37:33;5.50;99.90
17385;DHT22;8810;48.680;8.894;2023-02-04T04:40:00;5.40;99.90
17385;DHT22;8810;48.680;8.894;2023-02-04T04:42:28;5.40;99.90
17385;DHT22;8810;48.680;8.894;2023-02-04T04:44:55;5.40;99.90
17385;DHT22;8810;48.680;8.894;2023-02-04T04:47:22;5.30;99.90
17385;DHT22;8810;48.680;8.894;2023-02-04T04:49:49;5.30;99.90
17385;DHT22;8810;48.680;8.894;2023-02-04T04:52:15;5.30;99.90
17385;DHT22;8810;48.680;8.894;2023-02-04T04:54:42;5.30;99.90
17385;DHT22;8810;48.680;8.894;2023-02-04T04:57:09;5.30;99.90
17385;DHT22;8810;48.680;8.894;2023-02-04T04:59:37;5.30;99.90
17385;DHT22;8810;48.680;8.894;2023-02-04T05:02:04;5.30;99.90
17385;DHT22;8810;48.680;8.894;2023-02-04T05:04:31;5.30;99.90
17385;DHT22;8810;48.680;8.894;2023-02-04T05:06:58;5.30;99.90
17385;DHT22;8810;48.680;8.894;2023-02-04T05:09:24;5.20;99.90
17385;DHT22;8810;48.680;8.894;2023-02-04T05:11:51;5.20;99.90
17385;DHT22;8810;48.680;8.894;2023-02-04T05:14:18;5.20;99.90
17385;DHT22;8810;48.680;8.894;2023-02-04T05:16:46;5.20;99.90
17385;DHT22;8810;48.680;8.894;2023-02-04T05:19:13;5.20;99.90
17385;DHT22;8810;48.680;8.894;2023-02-04T05:21:40;5.10;99.90
17385;DHT22;8810;48.680;8.894;2023-02-04T05:24:07;5.10;99.90
17385;DHT22;8810;48.680;8.894;2023-02-04T05:26:33;5.10;99.90
17385;DHT22;8810;48.680;8.894;2023-02-04T05:29:00;5.00;99.90
17385;DHT22;8810;48.680;8.894;2023-02-04T05:31:27;5.00;99.90
17385;DHT22;8810;48.680;8.894;2023-02-04T05:33:55;5.00;99.90
17385;DHT22;8810;48.680;8.894;2023-02-04T05:36:22;5.00;99.90
17385;DHT22;8810;48.680;8.894;2023-02-04T05:38:49;5.00;99.90
17385;DHT22;8810;48.680;8.894;2023-02-04T05:41:16;5.00;99.90
17385;DHT22;8810;48.680;8.894;2023-02-04T05:43:43;5.00;99.90
17385;DHT22;8810;48.680;8.894;2023-02-04T05:46:10;4.90;99.90
17385;DHT22;8810;48.680;8.894;2023-02-04T05:48:37;5.00;99.90
17385;DHT22;8810;48.680;8.894;2023-02-04T05:51:06;4.90;99.90
17385;DHT22;8810;48.680;8.894;2023-02-04T05:53:32;4.90;99.90
17385;DHT22;8810;48.680;8.894;2023-02-04T05:55:59;4.90;99.90
17385;DHT22;8810;48.680;8.894;2023-02-04T05:58:26;4.90;99.90
17385;DHT22;8810;48.680;8.894;2023-02-04T06:00:57;4.90;99.90
17385;DHT22;8810;48.680;8.894;2023-02-04T06:03:24;4.90;99.90
17385;DHT22;8810;48.680;8.894;2023-02-04T06:05:51;4.90;99.90
17385;DHT22;8810;48.680;8.894;2023-02-04T06:08:19;4.80;99.90
17385;DHT22;8810;48.680;8.894;2023-02-04T06:10:46;4.80;99.90
17385;DHT22;8810;48.680;8.894;2023-02-04T06:13:13;4.90;99.90
17385;DHT22;8810;48.680;8.894;2023-02-04T06:15:40;4.90;99.90
17385;DHT22;8810;48.680;8.894;2023-02-04T06:18:08;4.90;99.90
17385;DHT22;8810;48.680;8.894;2023-02-04T06:20:35;4.90;99.90
17385;DHT22;8810;48.680;8.894;2023-02-04T06:23:01;4.90;99.90
17385;DHT22;8810;48.680;8.894;2023-02-04T06:25:30;4.90;99.90
17385;DHT22;8810;48.680;8.894;2023-02-04T06:27:57;4.80;99.90
17385;DHT22;8810;48.680;8.894;2023-02-04T06:30:23;4.80;99.90
17385;DHT22;8810;48.680;8.894;2023-02-04T06:32:50;4.90;99.90
17385;DHT22;8810;48.680;8.894;2023-02-04T06:35:17;4.80;99.90
17385;DHT22;8810;48.680;8.894;2023-02-04T06:37:44;4.90;99.90
17385;DHT22;8810;48.680;8.894;2023-02-04T06:40:12;4.90;99.90
17385;DHT22;8810;48.680;8.894;2023-02-04T06:42:40;4.90;99.90
17385;DHT22;8810;48.680;8.894;2023-02-04T06:45:07;4.90;99.90
17385;DHT22;8810;48.680;8.894;2023-02-04T06:47:34;4.80;99.90
17385;DHT22;8810;48.680;8.894;2023-02-04T06:50:01;4.90;99.90
17385;DHT22;8810;48.680;8.894;2023-02-04T06:52:28;4.90;99.90
17385;DHT22;8810;48.680;8.894;2023-02-04T06:54:55;4.90;99.90
17385;DHT22;8810;48.680;8.894;2023-02-04T06:57:22;4.90;99.90
17385;DHT22;8810;48.680;8.894;2023-02-04T06:59:50;4.90;99.90
17385;DHT22;8810;48.680;8.894;2023-02-04T07:02:17;4.90;99.90
17385;DHT22;8810;48.680;8.894;2023-02-04T07:04:43;4.90;99.90
17385;DHT22;8810;48.680;8.894;2023-02-04T07:07:10;4.80;99.90
17385;DHT22;8810;48.680;8.894;2023-02-04T07:09:37;4.80;99.90
17385;DHT22;8810;48.680;8.894;2023-02-04T07:12:05;4.80;99.90
17385;DHT22;8810;48.680;8.894;2023-02-04T07:14:32;4.80;99.90
17385;DHT22;8810;48.680;8.894;2023-02-04T07:17:01;4.80;99.90
17385;DHT22;8810;48.680;8.894;2023-02-04T07:19:27;4.80;99.90
17385;DHT22;8810;48.680;8.894;2023-02-04T07:21:54;4.80;99.90
17385;DHT22;8810;48.680;8.894;2023-02-04T07:24:22;4.90;99.90
17385;DHT22;8810;48.680;8.894;2023-02-04T07:26:48;4.90;99.90
17385;DHT22;8810;48.680;8.894;2023-02-04T07:29:15;4.90;99.90
17385;DHT22;8810;48.680;8.894;2023-02-04T07:31:43;4.80;99.90
17385;DHT22;8810;48.680;8.894;2023-02-04T07:34:12;4.80;99.90
17385;DHT22;8810;48.680;8.894;2023-02-04T07:36:40;4.80;99.90
17385;DHT22;8810;48.680;8.894;2023-02-04T07:39:07;4.80;99.90
17385;DHT22;8810;48.680;8.894;2023-02-04T07:41:34;4.90;99.90
17385;DHT22;8810;48.680;8.894;2023-02-04T07:44:02;4.90;99.90
17385;DHT22;8810;48.680;8.894;2023-02-04T07:46:29;4.90;99.90
17385;DHT22;8810;48.680;8.894;2023-02-04T07:48:56;4.80;99.90
17385;DHT22;8810;48.680;8.894;2023-02-04T07:51:24;4.90;99.90
17385;DHT22;8810;48.680;8.894;2023-02-04T07:53:51;4.90;99.90
17385;DHT22;8810;48.680;8.894;2023-02-04T07:56:18;4.90;99.90
17385;DHT22;8810;48.680;8.894;2023-02-04T07:58:45;4.90;99.90
17385;DHT22;8810;48.680;8.894;2023-02-04T08:01:11;4.90;99.90
17385;DHT22;8810;48.680;8.894;2023-02-04T08:03:38;4.90;99.90
17385;DHT22;8810;48.680;8.894;2023-02-04T08:06:07;4.90;99.90
17385;DHT22;8810;48.680;8.894;2023-02-04T08:08:35;4.90;99.90
17385;DHT22;8810;48.680;8.894;2023-02-04T08:11:02;4.90;99.90
17385;DHT22;8810;48.680;8.894;2023-02-04T08:13:29;5.00;99.90
17385;DHT22;8810;48.680;8.894;2023-02-04T08:15:56;5.00;99.90
17385;DHT22;8810;48.680;8.894;2023-02-04T08:18:22;5.00;99.90
17385;DHT22;8810;48.680;8.894;2023-02-04T08:20:50;5.00;99.90
17385;DHT22;8810;48.680;8.894;2023-02-04T08:23:17;5.00;99.90
17385;DHT22;8810;48.680;8.894;2023-02-04T08:25:45;5.00;99.90
17385;DHT22;8810;48.680;8.894;2023-02-04T08:28:12;5.10;99.90
17385;DHT22;8810;48.680;8.894;2023-02-04T08:30:39;5.10;99.90
17385;DHT22;8810;48.680;8.894;2023-02-04T08:33:06;5.10;99.90
17385;DHT22;8810;48.680;8.894;2023-02-04T08:35:33;5.20;99.90
17385;DHT22;8810;48.680;8.894;2023-02-04T08:37:59;5.20;99.90
17385;DHT22;8810;48.680;8.894;2023-02-04T08:40:27;5.20;99.90
17385;DHT22;8810;48.680;8.894;2023-02-04T08:42:55;5.20;99.90
17385;DHT22;8810;48.680;8.894;2023-02-04T08:45:22;5.20;99.90
17385;DHT22;8810;48.680;8.894;2023-02-04T08:47:48;5.30;99.90
17385;DHT22;8810;48.680;8.894;2023-02-04T08:50:16;5.30;99.90
17385;DHT22;8810;48.680;8.894;2023-02-04T08:52:43;5.30;99.90
17385;DHT22;8810;48.680;8.894;2023-02-04T08:55:09;5.40;99.90
17385;DHT22;8810;48.680;8.894;2023-02-04T08:57:36;5.40;99.90
17385;DHT22;8810;48.680;8.894;2023-02-04T09:00:05;5.50;99.90
17385;DHT22;8810;48.680;8.894;2023-02-04T09:02:33;5.50;99.90
17385;DHT22;8810;48.680;8.894;2023-02-04T09:05:00;5.60;99.90
17385;DHT22;8810;48.680;8.894;2023-02-04T09:07:27;5.60;99.90
17385;DHT22;8810;48.680;8.894;2023-02-04T09:09:53;5.70;99.90
17385;DHT22;8810;48.680;8.894;2023-02-04T09:12:20;5.70;99.90
17385;DHT22;8810;48.680;8.894;2023-02-04T09:14:47;5.80;99.90
17385;DHT22;8810;48.680;8.894;2023-02-04T09:17:15;5.80;99.90
17385;DHT22;8810;48.680;8.894;2023-02-04T09:19:43;5.90;99.90
17385;DHT22;8810;48.680;8.894;2023-02-04T09:22:10;6.00;99.90
17385;DHT22;8810;48.680;8.894;2023-02-04T09:24:38;6.10;99.90
17385;DHT22;8810;48.680;8.894;2023-02-04T09:27:04;6.10;99.90
17385;DHT22;8810;48.680;8.894;2023-02-04T09:29:34;6.30;99.90
17385;DHT22;8810;48.680;8.894;2023-02-04T09:32:01;6.40;99.90
17385;DHT22;8810;48.680;8.894;2023-02-04T09:34:29;6.50;99.90
17385;DHT22;8810;48.680;8.894;2023-02-04T09:36:56;6.60;99.90
17385;DHT22;8810;48.680;8.894;2023-02-04T09:39:23;6.90;99.90
17385;DHT22;8810;48.680;8.894;2023-02-04T09:41:50;6.90;99.90
17385;DHT22;8810;48.680;8.894;2023-02-04T09:44:20;7.00;99.90
17385;DHT22;8810;48.680;8.894;2023-02-04T09:46:51;7.00;99.90
17385;DHT22;8810;48.680;8.894;2023-02-04T09:49:18;7.00;99.90
17385;DHT22;8810;48.680;8.894;2023-02-04T09:51:47;7.00;99.90
17385;DHT22;8810;48.680;8.894;2023-02-04T09:54:16;7.00;99.90
17385;DHT22;8810;48.680;8.894;2023-02-04T09:56:44;7.00;99.90
17385;DHT22;8810;48.680;8.894;2023-02-04T09:59:12;7.20;99.90
17385;DHT22;8810;48.680;8.894;2023-02-04T10:01:39;7.20;99.90
17385;DHT22;8810;48.680;8.894;2023-02-04T10:04:09;7.30;99.90
17385;DHT22;8810;48.680;8.894;2023-02-04T10:06:38;7.30;99.90
17385;DHT22;8810;48.680;8.894;2023-02-04T10:09:08;7.20;99.90
17385;DHT22;8810;48.680;8.894;2023-02-04T10:11:38;7.10;99.90
17385;DHT22;8810;48.680;8.894;2023-02-04T10:14:11;7.00;99.90
17385;DHT22;8810;48.680;8.894;2023-02-04T10:16:39;6.90;99.90
17385;DHT22;8810;48.680;8.894;2023-02-04T10:19:12;6.80;99.90
17385;DHT22;8810;48.680;8.894;2023-02-04T10:21:40;6.80;99.90
17385;DHT22;8810;48.680;8.894;2023-02-04T10:24:13;6.70;99.90
17385;DHT22;8810;48.680;8.894;2023-02-04T10:26:40;6.60;99.90
17385;DHT22;8810;48.680;8.894;2023-02-04T10:29:13;6.60;99.90
17385;DHT22;8810;48.680;8.894;2023-02-04T10:31:41;6.50;99.90
17385;DHT22;8810;48.680;8.894;2023-02-04T10:34:11;6.40;99.90
17385;DHT22;8810;48.680;8.894;2023-02-04T10:36:39;6.40;99.90
17385;DHT22;8810;48.680;8.894;2023-02-04T10:39:11;6.40;99.90
17385;DHT22;8810;48.680;8.894;2023-02-04T10:41:44;6.50;99.90
17385;DHT22;8810;48.680;8.894;2023-02-04T10:44:13;6.70;99.90
17385;DHT22;8810;48.680;8.894;2023-02-04T10:46:40;7.00;99.90
17385;DHT22;8810;48.680;8.894;2023-02-04T10:49:19;7.20;99.90
17385;DHT22;8810;48.680;8.894;2023-02-04T10:51:48;7.30;99.90
17385;DHT22;8810;48.680;8.894;2023-02-04T10:54:19;7.40;99.90
17385;DHT22;8810;48.680;8.894;2023-02-04T10:57:04;7.30;99.90
17385;DHT22;8810;48.680;8.894;2023-02-04T10:59:34;7.30;99.90
17385;DHT22;8810;48.680;8.894;2023-02-04T11:02:20;7.20;99.90
17385;DHT22;8810;48.680;8.894;2023-02-04T11:04:52;7.10;99.90
17385;DHT22;8810;48.680;8.894;2023-02-04T11:07:20;7.00;99.90
17385;DHT22;8810;48.680;8.894;2023-02-04T11:09:49;7.00;99.90
17385;DHT22;8810;48.680;8.894;2023-02-04T11:12:20;7.00;99.90
17385;DHT22;8810;48.680;8.894;2023-02-04T11:14:57;7.00;99.90
17385;DHT22;8810;48.680;8.894;2023-02-04T11:17:28;7.10;99.90
17385;DHT22;8810;48.680;8.894;2023-02-04T11:19:56;7.20;99.90
17385;DHT22;8810;48.680;8.894;2023-02-04T11:22:40;7.40;99.90
17385;DHT22;8810;48.680;8.894;2023-02-04T11:25:33;7.60;99.90
17385;DHT22;8810;48.680;8.894;2023-02-04T11:28:01;7.60;99.90
17385;DHT22;8810;48.680;8.894;2023-02-04T11:30:38;7.60;99.90
17385;DHT22;8810;48.680;8.894;2023-02-04T11:33:19;7.60;99.90
17385;DHT22;8810;48.680;8.894;2023-02-04T11:35:59;7.50;99.90
17385;DHT22;8810;48.680;8.894;2023-02-04T11:38:27;7.40;99.90
17385;DHT22;8810;48.680;8.894;2023-02-04T11:40:58;7.40;99.90
17385;DHT22;8810;48.680;8.894;2023-02-04T11:43:25;7.30;99.90
17385;DHT22;8810;48.680;8.894;2023-02-04T11:46:01;7.30;99.90
17385;DHT22;8810;48.680;8.894;2023-02-04T11:48:28;7.30;99.90
17385;DHT22;8810;48.680;8.894;2023-02-04T11:50:55;7.40;99.90
17385;DHT22;8810;48.680;8.894;2023-02-04T11:53:23;7.40;99.90
17385;DHT22;8810;48.680;8.894;2023-02-04T11:55:51;7.50;99.90
17385;DHT22;8810;48.680;8.894;2023-02-04T11:58:20;7.50;99.90
17385;DHT22;8810;48.680;8.894;2023-02-04T12:00:50;7.50;99.90
17385;DHT22;8810;48.680;8.894;2023-02-04T12:03:24;7.50;99.90
17385;DHT22;8810;48.680;8.894;2023-02-04T12:05:52;7.50;99.90
17385;DHT22;8810;48.680;8.894;2023-02-04T12:08:31;7.60;99.90
17385;DHT22;8810;48.680;8.894;2023-02-04T12:13:44;7.80;99.90
17385;DHT22;8810;48.680;8.894;2023-02-04T12:16:11;7.90;99.90
17385;DHT22;8810;48.680;8.894;2023-02-04T12:18:38;8.00;99.90
17385;DHT22;8810;48.680;8.894;2023-02-04T12:21:05;8.00;99.90
17385;DHT22;8810;48.680;8.894;2023-02-04T12:23:32;8.00;99.90
17385;DHT22;8810;48.680;8.894;2023-02-04T12:25:59;7.90;99.90
17385;DHT22;8810;48.680;8.894;2023-02-04T12:28:26;7.90;99.90
17385;DHT22;8810;48.680;8.894;2023-02-04T12:30:55;7.90;99.90
17385;DHT22;8810;48.680;8.894;2023-02-04T12:33:22;7.90;99.90
17385;DHT22;8810;48.680;8.894;2023-02-04T12:35:48;7.90;99.90
17385;DHT22;8810;48.680;8.894;2023-02-04T12:38:15;7.90;99.90
17385;DHT22;8810;48.680;8.894;2023-02-04T12:40:42;7.90;99.90
17385;DHT22;8810;48.680;8.894;2023-02-04T12:43:09;7.90;99.90
17385;DHT22;8810;48.680;8.894;2023-02-04T12:45:36;7.80;99.90
17385;DHT22;8810;48.680;8.894;2023-02-04T12:48:05;7.80;99.90
17385;DHT22;8810;48.680;8.894;2023-02-04T12:50:32;7.70;99.90
17385;DHT22;8810;48.680;8.894;2023-02-04T12:52:59;7.60;99.90
17385;DHT22;8810;48.680;8.894;2023-02-04T12:55:27;7.60;99.90
17385;DHT22;8810;48.680;8.894;2023-02-04T12:57:54;7.50;99.90
17385;DHT22;8810;48.680;8.894;2023-02-04T13:00:22;7.50;99.90
17385;DHT22;8810;48.680;8.894;2023-02-04T13:02:49;7.40;99.90
17385;DHT22;8810;48.680;8.894;2023-02-04T13:05:17;7.40;99.90
17385;DHT22;8810;48.680;8.894;2023-02-04T13:07:44;7.40;99.90
17385;DHT22;8810;48.680;8.894;2023-02-04T13:10:12;7.40;99.90
17385;DHT22;8810;48.680;8.894;2023-02-04T13:12:39;7.40;99.90
17385;DHT22;8810;48.680;8.894;2023-02-04T13:15:07;7.50;99.90
17385;DHT22;8810;48.680;8.894;2023-02-04T13:17:34;7.70;99.90
17385;DHT22;8810;48.680;8.894;2023-02-04T13:20:01;7.80;99.90
17385;DHT22;8810;48.680;8.894;2023-02-04T13:22:29;7.90;99.90
17385;DHT22;8810;48.680;8.894;2023-02-04T13:24:56;7.90;99.90
17385;DHT22;8810;48.680;8.894;2023-02-04T13:27:23;7.90;99.90
17385;DHT22;8810;48.680;8.894;2023-02-04T13:29:50;7.90;99.90
17385;DHT22;8810;48.680;8.894;2023-02-04T13:32:17;7.90;99.90
17385;DHT22;8810;48.680;8.894;2023-02-04T13:34:43;8.10;99.90
17385;DHT22;8810;48.680;8.894;2023-02-04T13:37:10;8.40;99.90
17385;DHT22;8810;48.680;8.894;2023-02-04T13:39:39;8.90;99.90
17385;DHT22;8810;48.680;8.894;2023-02-04T13:42:05;9.30;99.90
17385;DHT22;8810;48.680;8.894;2023-02-04T13:44:32;9.50;99.90
17385;DHT22;8810;48.680;8.894;2023-02-04T13:46:59;9.50;99.90
17385;DHT22;8810;48.680;8.894;2023-02-04T13:49:26;9.60;99.90
17385;DHT22;8810;48.680;8.894;2023-02-04T13:51:53;9.40;99.90
17385;DHT22;8810;48.680;8.894;2023-02-04T13:54:19;9.30;99.90
17385;DHT22;8810;48.680;8.894;2023-02-04T13:56:48;9.20;99.90
17385;DHT22;8810;48.680;8.894;2023-02-04T13:59:14;9.20;99.90
17385;DHT22;8810;48.680;8.894;2023-02-04T14:01:41;9.10;99.90
17385;DHT22;8810;48.680;8.894;2023-02-04T14:04:08;9.00;99.90
17385;DHT22;8810;48.680;8.894;2023-02-04T14:06:35;9.00;99.90
17385;DHT22;8810;48.680;8.894;2023-02-04T14:09:08;9.10;99.90
17385;DHT22;8810;48.680;8.894;2023-02-04T14:11:35;9.30;99.90
17385;DHT22;8810;48.680;8.894;2023-02-04T14:14:03;9.60;99.90
17385;DHT22;8810;48.680;8.894;2023-02-04T14:16:30;9.80;99.90
17385;DHT22;8810;48.680;8.894;2023-02-04T14:18:57;10.00;99.90
17385;DHT22;8810;48.680;8.894;2023-02-04T14:21:24;10.20;99.90
17385;DHT22;8810;48.680;8.894;2023-02-04T14:23:51;10.20;99.90
17385;DHT22;8810;48.680;8.894;2023-02-04T14:26:19;10.30;99.90
17385;DHT22;8810;48.680;8.894;2023-02-04T14:28:46;10.50;99.90
17385;DHT22;8810;48.680;8.894;2023-02-04T14:31:14;10.50;99.90
17385;DHT22;8810;48.680;8.894;2023-02-04T14:33:41;10.70;99.90
17385;DHT22;8810;48.680;8.894;2023-02-04T14:36:09;10.80;99.90
17385;DHT22;8810;48.680;8.894;2023-02-04T14:38:36;10.90;99.90
17385;DHT22;8810;48.680;8.894;2023-02-04T14:41:04;11.10;99.90
17385;DHT22;8810;48.680;8.894;2023-02-04T14:43:31;11.10;99.90
17385;DHT22;8810;48.680;8.894;2023-02-04T14:46:02;11.20;99.90
17385;DHT22;8810;48.680;8.894;2023-02-04T14:48:30;11.20;99.90
17385;DHT22;8810;48.680;8.894;2023-02-04T14:50:57;11.30;99.90
17385;DHT22;8810;48.680;8.894;2023-02-04T14:53:23;11.30;99.90
17385;DHT22;8810;48.680;8.894;2023-02-04T14:55:50;11.20;99.90
17385;DHT22;8810;48.680;8.894;2023-02-04T14:58:17;11.30;99.90
17385;DHT22;8810;48.680;8.894;2023-02-04T15:00:44;11.30;99.90
17385;DHT22;8810;48.680;8.894;2023-02-04T15:03:11;11.20;99.90
17385;DHT22;8810;48.680;8.894;2023-02-04T15:05:39;11.20;99.90
17385;DHT22;8810;48.680;8.894;2023-02-04T15:08:06;11.10;99.90
17385;DHT22;8810;48.680;8.894;2023-02-04T15:10:33;11.00;99.90
17385;DHT22;8810;48.680;8.894;2023-02-04T15:13:01;10.70;99.90
17385;DHT22;8810;48.680;8.894;2023-02-04T15:15:28;10.50;99.90
17385;DHT22;8810;48.680;8.894;2023-02-04T15:17:55;10.30;99.90
17385;DHT22;8810;48.680;8.894;2023-02-04T15:20:22;10.00;99.90
17385;DHT22;8810;48.680;8.894;2023-02-04T15:22:51;9.80;99.90
17385;DHT22;8810;48.680;8.894;2023-02-04T15:25:20;9.70;99.90
17385;DHT22;8810;48.680;8.894;2023-02-04T15:27:47;9.60;99.90
17385;DHT22;8810;48.680;8.894;2023-02-04T15:30:15;9.50;99.90
17385;DHT22;8810;48.680;8.894;2023-02-04T15:32:42;9.50;99.90
17385;DHT22;8810;48.680;8.894;2023-02-04T15:35:10;9.30;99.90
17385;DHT22;8810;48.680;8.894;2023-02-04T15:37:38;9.30;99.90
17385;DHT22;8810;48.680;8.894;2023-02-04T15:40:08;9.20;99.90
17385;DHT22;8810;48.680;8.894;2023-02-04T15:42:35;9.20;99.90
17385;DHT22;8810;48.680;8.894;2023-02-04T15:45:02;9.00;99.90
17385;DHT22;8810;48.680;8.894;2023-02-04T15:47:29;8.90;99.90
17385;DHT22;8810;48.680;8.894;2023-02-04T15:49:56;8.70;99.90
17385;DHT22;8810;48.680;8.894;2023-02-04T15:52:23;8.60;99.90
17385;DHT22;8810;48.680;8.894;2023-02-04T15:54:50;8.50;99.90
17385;DHT22;8810;48.680;8.894;2023-02-04T15:57:18;8.40;99.90
17385;DHT22;8810;48.680;8.894;2023-02-04T15:59:45;8.30;99.90
17385;DHT22;8810;48.680;8.894;2023-02-04T16:02:12;8.20;99.90
17385;DHT22;8810;48.680;8.894;2023-02-04T16:04:39;8.00;99.90
17385;DHT22;8810;48.680;8.894;2023-02-04T16:07:09;7.90;99.90